createdAt,value
2022-10-13T00:00:14.585Z,16.42
2022-10-13T00:02:41.558Z,14.18
2022-10-13T00:05:13.755Z,15.65
2022-10-13T00:07:40.667Z,14.70
2022-10-13T00:10:07.892Z,14.07
2022-10-13T00:12:36.520Z,14.07
2022-10-13T00:15:07.466Z,15.32
2022-10-13T00:17:36.453Z,16.02
2022-10-13T00:20:08.244Z,15.55
2022-10-13T00:22:35.490Z,15.95
2022-10-13T00:25:04.062Z,14.63
2022-10-13T00:27:30.750Z,14.73
2022-10-13T00:29:57.485Z,14.80
2022-10-13T00:32:25.630Z,16.33
2022-10-13T00:34:52.367Z,16.83
2022-10-13T00:37:22.533Z,16.58
2022-10-13T00:39:49.310Z,15.85
2022-10-13T00:42:17.496Z,17.23
2022-10-13T00:45:06.029Z,16.48
2022-10-13T00:47:41.530Z,16.48
2022-10-13T00:50:12.095Z,15.75
2022-10-13T00:52:44.603Z,15.80
2022-10-13T00:55:16.461Z,16.35
2022-10-13T00:57:46.544Z,16.58
2022-10-13T01:00:14.012Z,16.17
2022-10-13T01:02:43.693Z,15.38
2022-10-13T01:05:14.126Z,15.10
2022-10-13T01:07:43.368Z,15.65
2022-10-13T01:10:12.418Z,15.75
2022-10-13T01:12:51.082Z,16.33
2022-10-13T01:15:28.045Z,16.17
2022-10-13T01:18:23.574Z,16.10
2022-10-13T01:21:06.400Z,15.50
2022-10-13T01:23:43.442Z,15.50
2022-10-13T01:26:39.082Z,15.80
2022-10-13T01:29:11.767Z,14.55
2022-10-13T01:31:54.145Z,15.60
2022-10-13T01:34:36.174Z,15.90
2022-10-13T01:37:26.667Z,14.45
2022-10-13T01:40:11.835Z,15.35
2022-10-13T01:43:12.113Z,15.43
2022-10-13T01:45:53.099Z,13.75
2022-10-13T01:48:20.417Z,14.93
2022-10-13T01:50:49.180Z,16.73
2022-10-13T01:53:19.984Z,15.75
2022-10-13T01:55:59.371Z,13.75
2022-10-13T01:58:30.114Z,16.65
2022-10-13T02:01:18.497Z,14.65
2022-10-13T02:04:09.878Z,16.50
2022-10-13T02:06:50.433Z,14.48
2022-10-13T02:09:38.398Z,14.13
2022-10-13T02:14:57.332Z,13.90
2022-10-13T02:17:28.891Z,12.65
2022-10-13T02:19:57.370Z,13.55
2022-10-13T02:22:29.757Z,14.25
2022-10-13T02:24:56.877Z,14.10
2022-10-13T02:27:24.281Z,12.65
2022-10-13T02:29:57.287Z,14.98
2022-10-13T02:32:27.485Z,12.43
2022-10-13T02:34:56.175Z,12.20
2022-10-13T02:37:25.591Z,13.85
2022-10-13T02:39:55.210Z,13.45
2022-10-13T02:42:22.305Z,10.82
2022-10-13T02:44:51.144Z,13.05
2022-10-13T02:47:17.997Z,11.10
2022-10-13T02:49:44.695Z,12.13
2022-10-13T02:52:11.621Z,12.23
2022-10-13T02:54:38.672Z,12.27
2022-10-13T02:57:06.384Z,13.18
2022-10-13T02:59:35.160Z,11.88
2022-10-13T03:02:04.120Z,11.82
2022-10-13T03:04:33.543Z,11.32
2022-10-13T03:07:01.828Z,11.80
2022-10-13T03:09:30.242Z,11.85
2022-10-13T03:11:57.201Z,11.63
2022-10-13T03:14:24.255Z,11.98
2022-10-13T03:16:51.195Z,11.20
2022-10-13T03:19:17.865Z,10.75
2022-10-13T03:21:46.040Z,12.48
2022-10-13T03:24:12.744Z,12.43
2022-10-13T03:26:40.576Z,12.77
2022-10-13T03:29:07.818Z,12.70
2022-10-13T03:31:36.096Z,12.60
2022-10-13T03:34:04.382Z,12.98
2022-10-13T03:36:40.533Z,11.90
2022-10-13T03:39:08.020Z,11.55
2022-10-13T03:41:35.997Z,11.45
2022-10-13T03:44:02.759Z,11.60
2022-10-13T03:46:30.695Z,11.00
2022-10-13T03:48:57.494Z,11.48
2022-10-13T03:51:24.721Z,10.15
2022-10-13T03:53:54.319Z,10.93
2022-10-13T03:56:26.808Z,11.23
2022-10-13T03:58:58.646Z,11.43
2022-10-13T04:01:27.585Z,10.77
2022-10-13T04:03:55.797Z,10.60
2022-10-13T04:06:23.310Z,11.23
2022-10-13T04:08:50.540Z,10.15
2022-10-13T04:11:22.761Z,10.20
2022-10-13T04:13:49.581Z,10.00
2022-10-13T04:16:23.966Z,11.93
2022-10-13T04:18:53.444Z,10.20
2022-10-13T04:21:20.303Z,10.25
2022-10-13T04:23:47.160Z,12.48
2022-10-13T04:26:22.199Z,12.00
2022-10-13T04:28:50.621Z,12.23
2022-10-13T04:31:17.670Z,12.85
2022-10-13T04:33:46.627Z,12.57
2022-10-13T04:36:14.712Z,12.15
2022-10-13T04:38:44.732Z,12.73
2022-10-13T04:41:12.485Z,12.35
2022-10-13T04:43:40.771Z,13.00
2022-10-13T04:46:12.474Z,13.43
2022-10-13T04:48:39.387Z,12.93
2022-10-13T04:51:10.246Z,11.52
2022-10-13T04:53:37.086Z,13.35
2022-10-13T04:56:06.187Z,13.07
2022-10-13T04:58:33.191Z,13.05
2022-10-13T05:01:00.027Z,12.18
2022-10-13T05:03:28.107Z,14.98
2022-10-13T05:05:56.712Z,13.35
2022-10-13T05:08:24.426Z,12.80
2022-10-13T05:11:00.246Z,13.80
2022-10-13T05:13:29.431Z,13.73
2022-10-13T05:15:56.630Z,13.45
2022-10-13T05:18:23.659Z,12.32
2022-10-13T05:20:50.660Z,14.05
2022-10-13T05:23:18.986Z,13.25
2022-10-13T05:25:48.245Z,14.23
2022-10-13T05:28:14.999Z,13.98
2022-10-13T05:30:41.928Z,13.40
2022-10-13T05:33:10.182Z,14.27
2022-10-13T05:35:36.855Z,13.05
2022-10-13T05:38:04.621Z,14.50
2022-10-13T05:40:33.654Z,14.50
2022-10-13T05:43:00.655Z,15.15
2022-10-13T05:45:29.452Z,15.15
2022-10-13T05:47:56.192Z,12.60
2022-10-13T05:50:22.993Z,9.88
2022-10-13T05:52:50.471Z,12.65
2022-10-13T05:55:19.099Z,13.98
2022-10-13T05:57:51.546Z,13.30
2022-10-13T06:00:19.936Z,14.15
2022-10-13T06:03:14.930Z,12.38
2022-10-13T06:05:45.192Z,13.88
2022-10-13T06:08:11.910Z,14.40
2022-10-13T06:10:38.689Z,13.15
2022-10-13T06:13:05.475Z,13.73
2022-10-13T06:15:33.172Z,12.52
2022-10-13T06:17:59.940Z,12.30
2022-10-13T06:20:27.687Z,12.95
2022-10-13T06:22:55.881Z,13.52
2022-10-13T06:25:22.858Z,12.38
2022-10-13T06:27:49.937Z,12.27
2022-10-13T06:30:17.296Z,13.15
2022-10-13T06:32:44.441Z,13.15
2022-10-13T06:35:11.205Z,13.27
2022-10-13T06:37:37.937Z,13.73
2022-10-13T06:40:05.850Z,12.82
2022-10-13T06:42:34.779Z,14.73
2022-10-13T06:45:01.682Z,12.88
2022-10-13T06:47:29.882Z,11.50
2022-10-13T06:49:56.674Z,13.48
2022-10-13T06:52:23.794Z,13.15
2022-10-13T06:54:50.539Z,13.07
2022-10-13T06:57:17.214Z,12.75
2022-10-13T06:59:44.533Z,12.88
2022-10-13T07:02:11.518Z,13.10
2022-10-13T07:04:38.211Z,13.45
2022-10-13T07:07:06.294Z,13.48
2022-10-13T07:09:32.982Z,12.82
2022-10-13T07:12:00.100Z,13.63
2022-10-13T07:14:26.898Z,11.57
2022-10-13T07:16:54.035Z,13.75
2022-10-13T07:19:20.894Z,13.75
2022-10-13T07:21:48.981Z,13.57
2022-10-13T07:24:15.934Z,13.77
2022-10-13T07:26:42.655Z,13.13
2022-10-13T07:29:09.782Z,14.98
2022-10-13T07:31:38.352Z,13.43
2022-10-13T07:34:05.690Z,13.75
2022-10-13T07:36:33.745Z,12.48
2022-10-13T07:39:01.499Z,13.05
2022-10-13T07:41:28.510Z,12.32
2022-10-13T07:43:58.880Z,12.60
2022-10-13T07:46:26.008Z,14.23
2022-10-13T07:48:56.333Z,13.52
2022-10-13T07:51:23.525Z,13.95
2022-10-13T07:53:50.609Z,14.13
2022-10-13T07:56:17.484Z,13.07
2022-10-13T07:58:47.055Z,13.15
2022-10-13T08:01:14.901Z,13.93
2022-10-13T08:03:47.173Z,13.43
2022-10-13T08:06:17.249Z,12.55
2022-10-13T08:08:44.197Z,12.98
2022-10-13T08:11:16.230Z,13.55
2022-10-13T08:13:50.619Z,13.90
2022-10-13T08:16:18.290Z,13.85
2022-10-13T08:18:46.641Z,13.95
2022-10-13T08:24:06.336Z,14.65
2022-10-13T08:26:33.659Z,15.90
2022-10-13T08:29:20.837Z,14.10
2022-10-13T08:34:16.328Z,14.93
2022-10-13T08:36:43.750Z,13.20
2022-10-13T08:39:10.761Z,13.60
2022-10-13T08:41:41.359Z,13.70
2022-10-13T08:47:35.392Z,13.95
2022-10-13T08:50:07.134Z,12.35
2022-10-13T08:53:27.253Z,13.43
2022-10-13T08:55:59.439Z,12.20
2022-10-13T08:58:29.738Z,12.50
2022-10-13T09:01:18.382Z,12.65
2022-10-13T09:03:56.721Z,12.93
2022-10-13T09:06:48.313Z,13.48
2022-10-13T09:09:17.342Z,12.32
2022-10-13T09:11:46.709Z,11.85
2022-10-13T09:14:22.972Z,11.07
2022-10-13T09:16:51.350Z,12.13
2022-10-13T09:19:34.164Z,11.73
2022-10-13T09:22:24.124Z,11.13
2022-10-13T09:25:11.930Z,11.68
2022-10-13T09:27:59.267Z,11.23
2022-10-13T09:30:37.045Z,11.50
2022-10-13T09:33:19.187Z,10.88
2022-10-13T09:35:48.928Z,11.90
2022-10-13T09:38:21.449Z,10.95
2022-10-13T09:40:59.700Z,11.88
2022-10-13T09:43:47.489Z,10.10
2022-10-13T09:46:21.639Z,10.45
2022-10-13T09:51:34.433Z,9.15
2022-10-13T09:54:01.647Z,9.50
2022-10-13T09:56:44.732Z,10.02
2022-10-13T09:59:11.403Z,10.02
2022-10-13T10:01:42.175Z,9.15
2022-10-13T10:04:14.862Z,9.63
2022-10-13T10:06:42.141Z,9.75
2022-10-13T10:09:34.480Z,9.57
2022-10-13T10:12:03.380Z,9.60
2022-10-13T10:14:33.625Z,8.98
2022-10-13T10:17:37.848Z,9.38
2022-10-13T10:20:26.692Z,9.07
2022-10-13T10:23:07.225Z,8.43
2022-10-13T10:25:50.823Z,10.32
2022-10-13T10:28:46.680Z,10.37
2022-10-13T10:31:25.521Z,9.05
2022-10-13T10:34:20.006Z,8.75
2022-10-13T10:37:25.111Z,8.82
2022-10-13T10:40:29.066Z,7.55
2022-10-13T10:43:26.995Z,8.40
2022-10-13T10:45:57.617Z,8.35
2022-10-13T10:48:32.886Z,8.65
2022-10-13T10:51:01.265Z,8.38
2022-10-13T10:53:53.954Z,7.57
2022-10-13T10:56:35.333Z,8.05
2022-10-13T10:59:43.884Z,7.97
2022-10-13T11:02:24.829Z,8.30
2022-10-13T11:04:54.098Z,7.00
2022-10-13T11:07:23.767Z,7.78
2022-10-13T11:09:54.063Z,8.75
2022-10-13T11:12:21.179Z,7.88
2022-10-13T11:14:54.832Z,8.57
2022-10-13T11:17:32.827Z,8.87
2022-10-13T11:20:00.529Z,9.07
2022-10-13T11:22:30.716Z,9.00
2022-10-13T11:25:24.486Z,9.43
2022-10-13T11:27:51.261Z,9.35
2022-10-13T11:30:39.781Z,9.10
2022-10-13T11:33:40.736Z,10.13
2022-10-13T11:36:44.897Z,9.85
2022-10-13T11:42:13.031Z,9.85
2022-10-13T11:44:59.259Z,8.63
2022-10-13T11:47:45.233Z,8.77
2022-10-13T11:50:49.706Z,8.93
2022-10-13T11:53:21.502Z,9.25
2022-10-13T11:55:56.674Z,8.70
2022-10-13T11:58:30.195Z,8.40
2022-10-13T12:01:02.219Z,8.15
2022-10-13T12:03:39.935Z,8.40
2022-10-13T12:06:34.178Z,8.55
2022-10-13T12:09:05.087Z,7.57
2022-10-13T12:11:38.051Z,7.07
2022-10-13T12:14:18.672Z,7.30
2022-10-13T12:19:42.526Z,8.27
2022-10-13T12:22:13.464Z,7.25
2022-10-13T12:24:40.705Z,7.90
2022-10-13T12:27:21.993Z,8.20
2022-10-13T12:29:48.967Z,8.00
2022-10-13T12:32:36.031Z,6.50
2022-10-13T12:35:27.092Z,10.27
2022-10-13T12:37:55.610Z,8.20
2022-10-13T12:40:23.530Z,7.82
2022-10-13T12:42:50.804Z,8.25
2022-10-13T12:45:21.033Z,7.40
2022-10-13T12:47:55.159Z,7.85
2022-10-13T12:50:30.665Z,8.15
2022-10-13T12:53:03.715Z,8.00
2022-10-13T12:55:31.809Z,7.57
2022-10-13T12:57:59.253Z,7.97
2022-10-13T13:00:29.056Z,7.85
2022-10-13T13:03:01.254Z,7.68
2022-10-13T13:05:36.869Z,8.15
2022-10-13T13:08:22.310Z,7.28
2022-10-13T13:11:06.376Z,7.07
2022-10-13T13:13:33.563Z,8.32
2022-10-13T13:16:20.027Z,7.32
2022-10-13T13:18:49.322Z,7.53
2022-10-13T13:21:18.343Z,8.00
2022-10-13T13:23:51.213Z,7.32
2022-10-13T13:26:22.565Z,7.38
2022-10-13T13:28:55.315Z,6.75
2022-10-13T13:31:26.414Z,7.68
2022-10-13T13:33:53.564Z,7.75
2022-10-13T13:36:22.946Z,7.88
2022-10-13T13:38:50.235Z,8.20
2022-10-13T13:41:17.710Z,6.88
2022-10-13T13:43:44.914Z,7.18
2022-10-13T13:46:21.868Z,8.55
2022-10-13T13:48:49.281Z,8.63
2022-10-13T13:51:16.078Z,8.40
2022-10-13T13:53:43.075Z,8.45
2022-10-13T13:56:17.958Z,9.32
2022-10-13T13:58:46.405Z,9.50
2022-10-13T14:01:14.163Z,8.82
2022-10-13T14:03:41.272Z,8.82
2022-10-13T14:06:08.659Z,9.57
2022-10-13T14:08:42.304Z,9.07
2022-10-13T14:11:11.174Z,8.77
2022-10-13T14:13:40.491Z,8.77
2022-10-13T14:16:07.775Z,8.48
2022-10-13T14:18:34.754Z,9.35
2022-10-13T14:21:05.959Z,8.85
2022-10-13T14:23:32.693Z,9.63
2022-10-13T14:26:06.957Z,8.38
2022-10-13T14:28:33.727Z,8.55
2022-10-13T14:31:05.069Z,8.57
2022-10-13T14:33:44.317Z,8.52
2022-10-13T14:36:13.076Z,8.77
2022-10-13T14:38:43.141Z,7.88
2022-10-13T14:41:11.330Z,7.72
2022-10-13T14:43:37.998Z,8.48
2022-10-13T14:46:08.077Z,10.63
2022-10-13T14:48:36.268Z,8.02
2022-10-13T14:51:07.499Z,7.97
2022-10-13T14:53:40.046Z,7.75
2022-10-13T14:56:21.781Z,7.70
2022-10-13T14:58:50.012Z,8.85
2022-10-13T15:01:17.800Z,8.30
2022-10-13T15:03:45.239Z,8.35
2022-10-13T15:06:17.860Z,8.65
2022-10-13T15:08:45.839Z,8.77
2022-10-13T15:11:13.010Z,7.95
2022-10-13T15:13:40.491Z,8.18
2022-10-13T15:16:08.401Z,7.45
2022-10-13T15:18:38.496Z,9.40
2022-10-13T15:21:05.346Z,9.45
2022-10-13T15:23:32.710Z,8.63
2022-10-13T15:26:01.241Z,9.43
2022-10-13T15:28:32.617Z,9.48
2022-10-13T15:30:59.362Z,8.30
2022-10-13T15:33:26.090Z,9.32
2022-10-13T15:35:53.399Z,9.02
2022-10-13T15:38:21.189Z,10.40
2022-10-13T15:40:48.176Z,10.90
2022-10-13T15:43:15.801Z,12.93
2022-10-13T15:45:56.798Z,13.98
2022-10-13T15:48:23.794Z,15.57
2022-10-13T15:50:50.589Z,13.32
2022-10-13T15:53:17.433Z,13.27
2022-10-13T15:55:46.443Z,12.85
2022-10-13T15:58:16.164Z,11.13
2022-10-13T16:00:44.851Z,10.00
2022-10-13T16:03:16.475Z,10.57
2022-10-13T16:05:44.399Z,10.10
2022-10-13T16:08:12.853Z,9.52
2022-10-13T16:10:41.180Z,10.25
2022-10-13T16:13:08.937Z,10.30
2022-10-13T16:15:35.849Z,10.30
2022-10-13T16:18:02.672Z,10.82
2022-10-13T16:20:34.514Z,10.70
2022-10-13T16:23:01.709Z,10.98
2022-10-13T16:25:29.412Z,10.50
2022-10-13T16:27:56.365Z,10.32
2022-10-13T16:30:23.158Z,9.90
2022-10-13T16:32:49.956Z,10.23
2022-10-13T16:35:16.915Z,10.77
2022-10-13T16:37:43.680Z,9.82
2022-10-13T16:40:10.914Z,11.45
2022-10-13T16:42:38.350Z,11.88
2022-10-13T16:45:05.743Z,11.55
2022-10-13T16:47:33.515Z,12.18
2022-10-13T16:50:00.277Z,12.98
2022-10-13T16:52:26.995Z,12.70
2022-10-13T16:54:53.662Z,11.75
2022-10-13T16:57:24.017Z,10.77
2022-10-13T16:59:51.005Z,11.18
2022-10-13T17:02:18.074Z,11.60
2022-10-13T17:04:44.922Z,13.02
2022-10-13T17:07:11.671Z,11.45
2022-10-13T17:09:39.730Z,12.50
2022-10-13T17:12:07.753Z,12.45
2022-10-13T17:14:34.454Z,13.13
2022-10-13T17:17:01.177Z,15.07
2022-10-13T17:19:27.875Z,13.75
2022-10-13T17:21:54.637Z,13.65
2022-10-13T17:24:23.851Z,15.73
2022-10-13T17:26:52.372Z,14.20
2022-10-13T17:29:19.131Z,12.15
2022-10-13T17:31:47.339Z,10.15
2022-10-13T17:34:14.049Z,10.48
2022-10-13T17:36:41.886Z,11.70
2022-10-13T17:39:11.591Z,10.95
2022-10-13T17:41:38.296Z,11.27
2022-10-13T17:44:05.138Z,10.23
2022-10-13T17:46:38.076Z,10.55
2022-10-13T17:49:10.546Z,11.27
2022-10-13T17:51:37.787Z,8.80
2022-10-13T17:54:05.025Z,8.13
2022-10-13T17:56:32.052Z,6.60
2022-10-13T17:59:00.424Z,5.05
2022-10-13T18:01:30.076Z,4.20
2022-10-13T18:04:00.618Z,3.80
2022-10-13T18:06:43.965Z,3.45
2022-10-13T18:09:16.006Z,27.08
2022-10-13T18:11:50.212Z,3.83
2022-10-13T18:14:19.278Z,3.65
2022-10-13T18:16:46.803Z,4.55
2022-10-13T18:19:13.924Z,5.18
2022-10-13T18:21:40.625Z,3.45
2022-10-13T18:24:09.098Z,5.00
2022-10-13T18:26:37.314Z,3.60
2022-10-13T18:29:08.725Z,4.60
2022-10-13T18:31:37.224Z,3.75
2022-10-13T18:34:06.655Z,4.85
2022-10-13T18:36:39.189Z,3.50
2022-10-13T18:39:08.882Z,3.13
2022-10-13T18:41:37.748Z,2.83
2022-10-13T18:44:05.099Z,2.50
2022-10-13T18:46:36.122Z,2.88
2022-10-13T18:49:04.298Z,3.03
2022-10-13T18:51:35.968Z,3.35
2022-10-13T18:54:04.310Z,4.57
2022-10-13T18:56:33.350Z,3.72
2022-10-13T18:59:01.853Z,3.13
2022-10-13T19:01:32.137Z,3.30
2022-10-13T19:03:59.519Z,4.65
2022-10-13T19:06:28.142Z,4.20
2022-10-13T19:08:56.866Z,5.20
2022-10-13T19:11:24.676Z,4.18
2022-10-13T19:13:51.760Z,5.18
2022-10-13T19:16:21.870Z,4.57
2022-10-13T19:18:49.299Z,4.47
2022-10-13T19:21:18.110Z,3.67
2022-10-13T19:23:44.886Z,4.20
2022-10-13T19:26:20.222Z,4.70
2022-10-13T19:28:47.452Z,4.43
2022-10-13T19:31:17.187Z,7.93
2022-10-13T19:33:45.347Z,7.70
2022-10-13T19:36:20.674Z,7.32
2022-10-13T19:38:47.424Z,4.32
2022-10-13T19:41:17.088Z,4.13
2022-10-13T19:43:43.791Z,3.47
2022-10-13T19:46:10.791Z,4.00
2022-10-13T19:48:39.797Z,3.65
2022-10-13T19:51:08.734Z,4.13
2022-10-13T19:53:36.578Z,3.95
2022-10-13T19:56:06.280Z,3.38
2022-10-13T19:58:33.900Z,4.47
2022-10-13T20:01:06.730Z,3.95
2022-10-13T20:03:33.648Z,4.07
2022-10-13T20:06:05.129Z,4.40
2022-10-13T20:08:32.701Z,4.07
2022-10-13T20:11:00.720Z,4.60
2022-10-13T20:13:27.486Z,3.83
2022-10-13T20:15:54.216Z,3.97
2022-10-13T20:18:20.946Z,4.05
2022-10-13T20:20:50.742Z,4.20
2022-10-13T20:23:19.727Z,4.35
2022-10-13T20:25:46.452Z,5.22
2022-10-13T20:28:15.081Z,4.18
2022-10-13T20:30:41.861Z,4.05
2022-10-13T20:33:10.181Z,4.55
2022-10-13T20:35:36.897Z,4.30
2022-10-13T20:38:05.770Z,4.80
2022-10-13T20:40:32.473Z,4.47
2022-10-13T20:42:59.309Z,4.50
2022-10-13T20:45:26.121Z,4.72
2022-10-13T20:47:55.280Z,4.70
2022-10-13T20:50:21.962Z,4.65
2022-10-13T20:52:48.664Z,5.68
2022-10-13T20:55:15.431Z,5.25
2022-10-13T20:57:42.115Z,5.75
2022-10-13T21:00:09.772Z,5.30
2022-10-13T21:02:36.723Z,5.38
2022-10-13T21:05:03.548Z,4.88
2022-10-13T21:07:32.914Z,5.22
2022-10-13T21:09:59.598Z,4.65
2022-10-13T21:12:26.314Z,5.13
2022-10-13T21:14:53.042Z,5.00
2022-10-13T21:17:20.148Z,5.35
2022-10-13T21:19:47.015Z,5.45
2022-10-13T21:22:13.752Z,5.47
2022-10-13T21:24:41.187Z,4.88
2022-10-13T21:27:07.962Z,5.00
2022-10-13T21:29:34.623Z,5.25
2022-10-13T21:32:01.410Z,4.90
2022-10-13T21:34:28.226Z,4.90
2022-10-13T21:36:55.033Z,4.80
2022-10-13T21:39:21.791Z,5.53
2022-10-13T21:41:48.490Z,5.03
2022-10-13T21:44:16.546Z,4.72
2022-10-13T21:46:43.420Z,5.45
2022-10-13T21:49:10.130Z,5.60
2022-10-13T21:51:39.495Z,6.07
2022-10-13T21:54:08.872Z,5.63
2022-10-13T21:56:36.589Z,5.00
2022-10-13T21:59:04.394Z,5.72
2022-10-13T22:01:33.480Z,5.43
2022-10-13T22:04:01.627Z,5.57
2022-10-13T22:06:30.311Z,5.10
2022-10-13T22:08:58.767Z,5.97
2022-10-13T22:11:28.588Z,5.47
2022-10-13T22:13:59.236Z,6.32
2022-10-13T22:16:42.128Z,5.70
2022-10-13T22:19:09.044Z,5.18
2022-10-13T22:21:39.343Z,4.57
2022-10-13T22:24:09.587Z,5.82
2022-10-13T22:26:38.185Z,5.38
2022-10-13T22:29:06.374Z,5.50
2022-10-13T22:31:33.935Z,5.50
2022-10-13T22:34:01.462Z,5.47
2022-10-13T22:36:29.253Z,5.15
2022-10-13T22:38:58.890Z,5.53
2022-10-13T22:41:27.380Z,5.70
2022-10-13T22:43:55.943Z,5.38
2022-10-13T22:46:25.086Z,5.13
2022-10-13T22:48:51.987Z,5.10
2022-10-13T22:51:21.566Z,4.88
2022-10-13T22:53:48.989Z,5.30
2022-10-13T22:56:21.873Z,4.88
2022-10-13T22:58:55.235Z,5.13
2022-10-13T23:01:22.655Z,4.63
2022-10-13T23:03:51.348Z,4.78
2022-10-13T23:06:22.041Z,4.22
2022-10-13T23:08:49.545Z,4.63
2022-10-13T23:11:17.224Z,4.50
2022-10-13T23:13:44.298Z,4.60
2022-10-13T23:16:14.084Z,5.00
2022-10-13T23:18:41.010Z,4.65
2022-10-13T23:21:13.099Z,4.35
2022-10-13T23:23:39.921Z,4.22
2022-10-13T23:26:09.625Z,4.50
2022-10-13T23:28:38.011Z,4.57
2022-10-13T23:31:08.189Z,3.95
2022-10-13T23:33:35.116Z,4.32
2022-10-13T23:36:02.934Z,4.28
2022-10-13T23:38:30.921Z,4.40
2022-10-13T23:41:06.386Z,4.43
2022-10-13T23:43:33.526Z,4.60
2022-10-13T23:46:01.147Z,3.58
2022-10-13T23:48:29.574Z,4.10
2022-10-13T23:50:56.361Z,4.05
2022-10-13T23:53:23.403Z,3.35
2022-10-13T23:55:50.406Z,3.92
2022-10-13T23:58:17.962Z,3.92
